TME weather

Houston Executive Airport
Houston, Texas, United States

Public forecast

Using degrees Fahrenheit for public forecast. Weather courtesy of forecast.io.

METAR (pilot weather report)

Retrieved 2019/08/21 14:35 UTC (0 seconds ago):

KTME 211435Z AUTO 20006KT 9SM CLR 31/25 A3005 RMK AO2

TAF (pilot weather forecast)

Closest forecast is Sugar Land Regional Airport, 16.8 nm (31.1 km) SE. Retrieved 2019/08/21 12:22 UTC (2 hours ago):

TAF KSGR 211120Z 2112/2212 18004KT P6SM FEW025 SCT250 FM211800 16008KT P6SM VCTS SCT050CB FM212200 16005KT P6SM SCT250